createdAt,value
2022-08-17T00:00:34.523Z,8.53
2022-08-17T00:03:10.635Z,8.58
2022-08-17T00:05:47.275Z,8.44
2022-08-17T00:08:16.800Z,8.51
2022-08-17T00:10:45.332Z,8.58
2022-08-17T00:13:16.746Z,8.52
2022-08-17T00:15:44.889Z,8.59
2022-08-17T00:19:01.792Z,8.44
2022-08-17T00:20:59.743Z,8.57
2022-08-17T00:23:27.646Z,8.57
2022-08-17T00:25:54.928Z,8.61
2022-08-17T00:28:21.782Z,8.44
2022-08-17T00:30:53.033Z,8.18
2022-08-17T00:33:26.048Z,8.18
2022-08-17T00:35:54.002Z,8.24
2022-08-17T00:38:21.556Z,8.26
2022-08-17T00:40:55.837Z,8.33
2022-08-17T00:43:28.790Z,8.44
2022-08-17T00:45:56.493Z,8.28
2022-08-17T00:48:23.828Z,8.16
2022-08-17T00:51:18.905Z,8.29
2022-08-17T00:53:51.935Z,8.04
2022-08-17T00:56:24.217Z,8.15
2022-08-17T00:58:52.351Z,8.03
2022-08-17T01:01:21.537Z,8.18
2022-08-17T01:03:50.890Z,8.12
2022-08-17T01:06:17.979Z,8.09
2022-08-17T01:08:44.952Z,8.18
2022-08-17T01:11:11.733Z,8.19
2022-08-17T01:13:42.645Z,8.26
2022-08-17T01:16:24.425Z,8.10
2022-08-17T01:18:54.366Z,8.02
2022-08-17T01:21:38.001Z,8.17
2022-08-17T01:24:04.950Z,8.30
2022-08-17T01:26:33.113Z,8.27
2022-08-17T01:29:00.827Z,8.35
2022-08-17T01:31:33.292Z,8.24
2022-08-17T01:34:02.746Z,8.11
2022-08-17T01:36:29.601Z,8.00
2022-08-17T01:38:56.602Z,7.99
2022-08-17T01:41:23.949Z,7.95
2022-08-17T01:44:02.850Z,7.95
2022-08-17T01:46:34.579Z,7.96
2022-08-17T01:49:02.009Z,7.84
2022-08-17T01:51:32.818Z,7.79
2022-08-17T01:54:20.264Z,7.90
2022-08-17T01:56:50.129Z,7.98
2022-08-17T01:59:19.380Z,8.10
2022-08-17T02:01:47.578Z,8.05
2022-08-17T02:04:15.052Z,8.08
2022-08-17T02:06:52.859Z,8.25
2022-08-17T02:09:24.043Z,8.28
2022-08-17T02:11:54.102Z,8.45
2022-08-17T02:14:21.735Z,8.44
2022-08-17T02:16:48.551Z,8.42
2022-08-17T02:19:16.136Z,8.39
2022-08-17T02:21:44.737Z,8.49
2022-08-17T02:24:17.161Z,8.33
2022-08-17T02:26:44.026Z,8.29
2022-08-17T02:29:10.757Z,8.29
2022-08-17T02:31:37.921Z,8.32
2022-08-17T02:34:05.312Z,8.31
2022-08-17T02:36:34.366Z,8.11
2022-08-17T02:39:03.963Z,7.89
2022-08-17T02:41:31.073Z,7.90
2022-08-17T02:43:57.850Z,7.95
2022-08-17T02:46:24.680Z,7.84
2022-08-17T02:48:51.483Z,7.84
2022-08-17T02:51:18.388Z,7.68
2022-08-17T02:53:45.161Z,7.74
2022-08-17T02:56:11.968Z,7.63
2022-08-17T02:58:39.003Z,7.64
2022-08-17T03:01:07.880Z,7.63
2022-08-17T03:03:36.054Z,7.60
2022-08-17T03:06:03.773Z,7.56
2022-08-17T03:08:30.697Z,7.56
2022-08-17T03:10:57.800Z,7.55
2022-08-17T03:13:24.601Z,7.66
2022-08-17T03:15:51.831Z,8.01
2022-08-17T03:18:24.547Z,8.13
2022-08-17T03:20:58.347Z,8.27
2022-08-17T03:23:26.279Z,8.12
2022-08-17T03:25:55.019Z,8.16
2022-08-17T03:28:23.318Z,8.05
2022-08-17T03:30:51.317Z,8.08
2022-08-17T03:33:19.004Z,8.22
2022-08-17T03:35:46.044Z,8.21
2022-08-17T03:38:14.993Z,8.42
2022-08-17T03:40:58.021Z,8.35
2022-08-17T03:43:29.714Z,8.25
2022-08-17T03:46:28.248Z,8.37
2022-08-17T03:49:22.796Z,8.50
2022-08-17T03:52:08.001Z,8.56
2022-08-17T03:54:53.642Z,8.46
2022-08-17T03:57:20.525Z,8.45
2022-08-17T03:59:47.931Z,8.34
2022-08-17T04:02:29.003Z,8.41
2022-08-17T04:04:56.314Z,8.34
2022-08-17T04:07:25.260Z,8.43
2022-08-17T04:09:52.107Z,8.63
2022-08-17T04:12:21.808Z,8.60
2022-08-17T04:14:52.625Z,8.44
2022-08-17T04:17:27.792Z,8.63
2022-08-17T04:19:55.517Z,8.58
2022-08-17T04:22:30.333Z,8.35
2022-08-17T04:25:17.722Z,8.54
2022-08-17T04:27:44.576Z,8.42
2022-08-17T04:30:12.522Z,8.45
2022-08-17T04:33:06.006Z,8.72
2022-08-17T04:35:39.711Z,8.58
2022-08-17T04:38:08.425Z,8.56
2022-08-17T04:40:54.197Z,8.45
2022-08-17T04:43:23.298Z,8.44
2022-08-17T04:45:57.136Z,8.55
2022-08-17T04:48:34.750Z,8.87
2022-08-17T04:51:07.255Z,8.69
2022-08-17T04:53:34.091Z,8.73
2022-08-17T04:56:00.970Z,8.63
2022-08-17T04:58:27.890Z,8.70
2022-08-17T05:00:54.845Z,8.98
2022-08-17T05:03:21.694Z,8.84
2022-08-17T05:05:49.814Z,8.87
2022-08-17T05:08:18.714Z,8.88
2022-08-17T05:10:45.920Z,8.73
2022-08-17T05:13:18.717Z,8.89
2022-08-17T05:15:47.592Z,8.80
2022-08-17T05:18:15.302Z,8.81
2022-08-17T05:20:42.916Z,8.80
2022-08-17T05:23:13.105Z,8.97
2022-08-17T05:25:43.221Z,9.04
2022-08-17T05:28:16.460Z,8.89
2022-08-17T05:30:44.419Z,8.81
2022-08-17T05:33:32.555Z,8.90
2022-08-17T05:36:00.488Z,8.96
2022-08-17T05:38:29.276Z,8.87
2022-08-17T05:40:56.748Z,8.96
2022-08-17T05:43:27.292Z,8.87
2022-08-17T05:46:06.332Z,8.89
2022-08-17T05:48:42.953Z,8.86
2022-08-17T05:51:31.838Z,8.86
2022-08-17T05:54:08.100Z,9.06
2022-08-17T05:56:53.653Z,9.23
2022-08-17T05:59:39.224Z,8.98
2022-08-17T06:02:19.271Z,9.03
2022-08-17T06:04:49.026Z,9.07
2022-08-17T06:07:27.060Z,9.19
2022-08-17T06:09:54.011Z,9.10
2022-08-17T06:12:38.845Z,9.08
2022-08-17T06:15:15.102Z,9.04
2022-08-17T06:17:43.119Z,9.12
2022-08-17T06:20:13.064Z,9.16
2022-08-17T06:22:46.536Z,9.18
2022-08-17T06:25:44.671Z,9.35
2022-08-17T06:28:14.759Z,9.38
2022-08-17T06:30:59.406Z,9.45
2022-08-17T06:33:32.312Z,9.36
2022-08-17T06:36:19.357Z,9.56
2022-08-17T06:39:04.700Z,9.68
2022-08-17T06:41:54.754Z,9.81
2022-08-17T06:44:43.508Z,9.89
2022-08-17T06:47:36.623Z,10.04
2022-08-17T06:50:05.867Z,9.86
2022-08-17T06:52:42.450Z,9.91
2022-08-17T06:55:26.557Z,9.92
2022-08-17T06:57:58.275Z,9.85
2022-08-17T07:00:33.703Z,10.01
2022-08-17T07:03:35.815Z,9.77
2022-08-17T07:06:11.777Z,9.78
2022-08-17T07:08:47.765Z,9.91
2022-08-17T07:11:31.809Z,10.21
2022-08-17T07:14:17.634Z,10.27
2022-08-17T07:16:47.922Z,10.13
2022-08-17T07:19:16.876Z,10.30
2022-08-17T07:21:43.590Z,10.56
2022-08-17T07:24:29.195Z,10.44
2022-08-17T07:27:28.044Z,10.59
2022-08-17T07:29:58.194Z,10.50
2022-08-17T07:32:53.493Z,10.51
2022-08-17T07:35:31.310Z,10.55
2022-08-17T07:38:24.988Z,10.56
2022-08-17T07:41:02.678Z,10.68
2022-08-17T07:43:41.887Z,10.82
2022-08-17T07:46:30.376Z,11.00
2022-08-17T07:49:23.431Z,11.06
2022-08-17T07:51:50.567Z,11.28
2022-08-17T07:54:22.866Z,11.38
2022-08-17T07:56:55.333Z,11.59
2022-08-17T07:59:24.075Z,11.46
2022-08-17T08:01:58.115Z,11.24
2022-08-17T08:04:58.835Z,11.29
2022-08-17T08:07:17.357Z,11.37
2022-08-17T08:10:04.269Z,11.71
2022-08-17T08:12:37.910Z,11.40
2022-08-17T08:15:17.350Z,11.53
2022-08-17T08:17:57.615Z,11.59
2022-08-17T08:20:53.420Z,11.51
2022-08-17T08:23:37.125Z,11.94
2022-08-17T08:26:18.622Z,11.87
2022-08-17T08:29:12.615Z,11.84
2022-08-17T08:32:17.448Z,11.81
2022-08-17T08:35:01.547Z,11.75
2022-08-17T08:37:56.263Z,12.06
2022-08-17T08:40:35.690Z,12.53
2022-08-17T08:43:06.027Z,12.30
2022-08-17T08:45:57.834Z,12.70
2022-08-17T08:48:53.667Z,12.88
2022-08-17T08:51:36.169Z,12.70
2022-08-17T08:54:31.592Z,12.71
2022-08-17T08:57:24.315Z,12.66
2022-08-17T09:00:02.572Z,12.69
2022-08-17T09:02:38.609Z,12.67
2022-08-17T09:05:30.118Z,12.39
2022-08-17T09:08:31.857Z,12.62
2022-08-17T09:11:31.099Z,12.69
2022-08-17T09:14:28.337Z,12.84
2022-08-17T09:17:02.270Z,12.78
2022-08-17T09:19:34.374Z,13.24
2022-08-17T09:22:11.102Z,13.42
2022-08-17T09:25:07.594Z,13.30
2022-08-17T09:27:48.886Z,13.44
2022-08-17T09:30:16.218Z,13.49
2022-08-17T09:32:46.136Z,13.89
2022-08-17T09:35:25.183Z,13.91
2022-08-17T09:38:34.545Z,13.22
2022-08-17T09:41:18.287Z,13.98
2022-08-17T09:44:23.317Z,14.06
2022-08-17T09:46:58.749Z,14.09
2022-08-17T09:49:30.738Z,13.80
2022-08-17T09:52:19.575Z,13.85
2022-08-17T09:54:47.330Z,13.37
2022-08-17T09:57:30.269Z,13.48
2022-08-17T10:00:16.712Z,13.23
2022-08-17T10:03:16.454Z,13.37
2022-08-17T10:05:46.638Z,13.47
2022-08-17T10:08:28.871Z,13.10
2022-08-17T10:11:09.051Z,12.91
2022-08-17T10:13:53.723Z,12.90
2022-08-17T10:16:32.138Z,13.20
2022-08-17T10:19:23.401Z,13.41
2022-08-17T10:22:26.421Z,13.18
2022-08-17T10:25:22.537Z,13.24
2022-08-17T10:28:04.736Z,13.50
2022-08-17T10:30:33.879Z,13.83
2022-08-17T10:33:07.222Z,13.69
2022-08-17T10:35:46.111Z,13.89
2022-08-17T10:38:24.600Z,13.87
2022-08-17T10:41:00.759Z,13.72
2022-08-17T10:43:33.512Z,14.05
2022-08-17T10:46:10.531Z,14.13
2022-08-17T10:49:16.750Z,14.14
2022-08-17T10:51:52.974Z,14.22
2022-08-17T10:54:25.777Z,14.26
2022-08-17T10:56:54.500Z,14.07
2022-08-17T10:59:36.466Z,14.37
2022-08-17T11:02:18.423Z,14.28
2022-08-17T11:05:00.511Z,14.06
2022-08-17T11:07:48.595Z,14.38
2022-08-17T11:10:33.545Z,14.23
2022-08-17T11:13:01.418Z,14.28
2022-08-17T11:15:50.608Z,14.75
2022-08-17T11:18:26.450Z,14.90
2022-08-17T11:21:16.269Z,14.59
2022-08-17T11:24:05.184Z,15.11
2022-08-17T11:26:34.303Z,15.27
2022-08-17T11:29:05.378Z,15.05
2022-08-17T11:31:45.042Z,15.67
2022-08-17T11:34:21.672Z,15.69
2022-08-17T11:37:01.900Z,15.71
2022-08-17T11:39:34.555Z,15.66
2022-08-17T11:42:20.079Z,15.67
2022-08-17T11:44:50.700Z,15.71
2022-08-17T11:48:16.086Z,15.49
2022-08-17T11:51:03.915Z,15.82
2022-08-17T11:53:37.314Z,15.53
2022-08-17T11:56:30.272Z,15.19
2022-08-17T11:58:57.478Z,15.27
2022-08-17T12:01:26.968Z,15.63
2022-08-17T12:03:58.982Z,15.58
2022-08-17T12:06:45.256Z,15.78
2022-08-17T12:09:22.418Z,15.29
2022-08-17T12:11:58.699Z,15.45
2022-08-17T12:15:07.983Z,15.67
2022-08-17T12:17:41.107Z,15.99
2022-08-17T12:20:21.525Z,16.19
2022-08-17T12:22:53.536Z,16.72
2022-08-17T12:25:33.229Z,16.82
2022-08-17T12:28:06.913Z,17.26
2022-08-17T12:30:35.721Z,17.31
2022-08-17T12:33:02.587Z,17.06
2022-08-17T12:35:35.942Z,17.47
2022-08-17T12:38:04.469Z,17.50
2022-08-17T12:40:32.611Z,17.77
2022-08-17T12:43:08.601Z,18.14
2022-08-17T12:45:41.866Z,18.41
2022-08-17T12:48:12.462Z,18.56
2022-08-17T12:50:42.472Z,19.07
2022-08-17T12:53:15.140Z,19.56
2022-08-17T12:55:43.163Z,19.38
2022-08-17T12:58:18.845Z,19.93
2022-08-17T13:00:49.688Z,19.87
2022-08-17T13:03:19.416Z,20.26
2022-08-17T13:05:52.492Z,21.08
2022-08-17T13:08:23.658Z,21.37
2022-08-17T13:10:58.349Z,22.00
2022-08-17T13:13:29.369Z,21.93
2022-08-17T13:16:02.343Z,21.50
2022-08-17T13:18:45.956Z,21.79
2022-08-17T13:21:28.138Z,21.61
2022-08-17T13:24:07.801Z,20.30
2022-08-17T13:26:38.265Z,19.67
2022-08-17T13:29:07.850Z,19.90
2022-08-17T13:31:52.788Z,20.43
2022-08-17T13:34:27.016Z,20.29
2022-08-17T13:37:29.920Z,20.48
2022-08-17T13:40:02.751Z,20.49
2022-08-17T13:42:55.467Z,21.32
2022-08-17T13:45:35.676Z,21.46
2022-08-17T13:48:08.518Z,22.36
2022-08-17T13:50:42.941Z,22.85
2022-08-17T13:53:27.079Z,22.95
2022-08-17T13:56:01.071Z,22.85
2022-08-17T13:58:35.950Z,23.29
2022-08-17T14:01:28.474Z,23.20
2022-08-17T14:03:56.415Z,23.87
2022-08-17T14:06:53.187Z,23.30
2022-08-17T14:09:12.568Z,22.35
2022-08-17T14:11:39.753Z,21.87
2022-08-17T14:14:06.713Z,22.58
2022-08-17T14:16:33.551Z,23.30
2022-08-17T14:19:00.510Z,23.06
2022-08-17T14:21:27.401Z,23.50
2022-08-17T14:23:55.110Z,23.25
2022-08-17T14:26:22.046Z,23.87
2022-08-17T14:28:56.588Z,22.55
2022-08-17T14:31:24.391Z,23.15
2022-08-17T14:33:52.072Z,22.48
2022-08-17T14:36:18.965Z,22.50
2022-08-17T14:38:45.910Z,23.85
2022-08-17T14:41:12.764Z,22.77
2022-08-17T14:43:39.973Z,23.45
2022-08-17T14:46:06.930Z,23.42
2022-08-17T14:48:35.870Z,24.09
2022-08-17T14:51:04.323Z,24.32
2022-08-17T14:53:31.160Z,24.46
2022-08-17T14:55:58.104Z,24.29
2022-08-17T14:58:26.041Z,24.84
2022-08-17T15:00:53.433Z,24.16
2022-08-17T15:03:20.339Z,24.54
2022-08-17T15:05:47.354Z,24.74
2022-08-17T15:08:14.835Z,26.07
2022-08-17T15:10:41.744Z,26.61
2022-08-17T15:13:27.550Z,25.47
2022-08-17T15:15:54.592Z,25.64
2022-08-17T15:18:21.591Z,25.34
2022-08-17T15:20:50.073Z,25.13
2022-08-17T15:23:20.573Z,24.90
2022-08-17T15:25:49.394Z,25.60
2022-08-17T15:28:16.669Z,24.98
2022-08-17T15:30:44.985Z,25.02
2022-08-17T15:33:20.513Z,24.86
2022-08-17T15:35:50.788Z,25.31
2022-08-17T15:38:18.556Z,23.86
2022-08-17T15:40:50.385Z,24.29
2022-08-17T15:43:24.938Z,24.13
2022-08-17T15:46:04.531Z,23.99
2022-08-17T15:48:42.582Z,23.56
2022-08-17T15:51:20.817Z,23.77
2022-08-17T15:53:50.783Z,23.70
2022-08-17T15:56:17.868Z,23.34
2022-08-17T15:58:46.710Z,22.92
2022-08-17T16:01:18.346Z,22.79
2022-08-17T16:04:05.097Z,22.60
2022-08-17T16:06:34.699Z,22.39
2022-08-17T16:09:01.553Z,22.81
2022-08-17T16:11:28.418Z,22.38
2022-08-17T16:13:56.051Z,22.54
2022-08-17T16:16:23.767Z,22.76
2022-08-17T16:18:53.536Z,22.28
2022-08-17T16:21:26.783Z,22.46
2022-08-17T16:23:59.273Z,22.65
2022-08-17T16:26:27.824Z,22.33
2022-08-17T16:28:55.550Z,22.21
2022-08-17T16:31:22.629Z,21.71
2022-08-17T16:34:15.460Z,21.88
2022-08-17T16:36:38.083Z,21.00
2022-08-17T16:39:04.877Z,20.40
2022-08-17T16:41:44.471Z,20.64
2022-08-17T16:44:19.567Z,20.28
2022-08-17T16:46:48.228Z,20.22
2022-08-17T16:49:35.865Z,19.86
2022-08-17T16:52:04.910Z,19.70
2022-08-17T16:54:31.930Z,19.68
2022-08-17T16:56:58.922Z,19.22
2022-08-17T16:59:38.762Z,18.89
2022-08-17T17:02:11.392Z,18.72
2022-08-17T17:04:50.409Z,19.06
2022-08-17T17:07:26.198Z,18.19
2022-08-17T17:09:55.536Z,17.63
2022-08-17T17:12:59.729Z,17.94
2022-08-17T17:15:10.783Z,18.11
2022-08-17T17:17:39.853Z,18.14
2022-08-17T17:20:12.143Z,18.00
2022-08-17T17:23:04.604Z,18.04
2022-08-17T17:25:57.400Z,18.20
2022-08-17T17:28:33.551Z,17.79
2022-08-17T17:31:11.936Z,17.65
2022-08-17T17:33:45.172Z,17.39
2022-08-17T17:36:30.129Z,17.55
2022-08-17T17:39:31.907Z,17.48
2022-08-17T17:42:00.004Z,17.16
2022-08-17T17:44:48.608Z,16.95
2022-08-17T17:47:16.652Z,16.61
2022-08-17T17:49:45.516Z,16.58
2022-08-17T17:52:21.049Z,16.34
2022-08-17T17:54:58.552Z,16.45
2022-08-17T17:57:46.939Z,16.20
2022-08-17T18:00:17.751Z,16.20
2022-08-17T18:02:51.406Z,16.02
2022-08-17T18:05:36.613Z,16.02
2022-08-17T18:08:12.293Z,15.96
2022-08-17T18:10:48.948Z,15.90
2022-08-17T18:13:21.208Z,15.85
2022-08-17T18:15:54.186Z,15.77
2022-08-17T18:18:38.400Z,15.80
2022-08-17T18:21:19.527Z,15.56
2022-08-17T18:23:49.697Z,15.78
2022-08-17T18:26:45.136Z,15.79
2022-08-17T18:29:27.611Z,15.92
2022-08-17T18:32:29.944Z,15.77
2022-08-17T18:35:27.975Z,15.72
2022-08-17T18:38:20.445Z,15.33
2022-08-17T18:40:58.315Z,15.48
2022-08-17T18:43:44.447Z,15.31
2022-08-17T18:46:35.305Z,15.41
2022-08-17T18:49:24.225Z,15.05
2022-08-17T18:52:09.224Z,15.06
2022-08-17T18:54:39.151Z,15.00
2022-08-17T18:57:07.233Z,14.97
2022-08-17T18:59:49.821Z,15.00
2022-08-17T19:02:34.581Z,14.89
2022-08-17T19:05:26.407Z,15.00
2022-08-17T19:07:53.628Z,14.72
2022-08-17T19:10:28.336Z,14.77
2022-08-17T19:13:12.779Z,14.58
2022-08-17T19:16:13.841Z,14.90
2022-08-17T19:18:43.869Z,14.72
2022-08-17T19:21:18.890Z,15.01
2022-08-17T19:23:53.445Z,15.19
2022-08-17T19:26:55.457Z,14.81
2022-08-17T19:29:19.538Z,14.87
2022-08-17T19:31:49.651Z,14.76
2022-08-17T19:34:17.556Z,14.97
2022-08-17T19:37:15.505Z,14.69
2022-08-17T19:40:51.216Z,14.47
2022-08-17T19:44:03.567Z,14.57
2022-08-17T19:46:35.590Z,14.22
2022-08-17T19:49:11.841Z,14.42
2022-08-17T19:51:57.318Z,14.39
2022-08-17T19:54:31.458Z,14.32
2022-08-17T19:57:11.855Z,14.55
2022-08-17T19:59:38.646Z,14.63
2022-08-17T20:02:25.934Z,14.23
2022-08-17T20:04:55.589Z,14.14
2022-08-17T20:07:26.834Z,14.24
2022-08-17T20:10:07.972Z,14.16
2022-08-17T20:12:38.413Z,14.38
2022-08-17T20:15:10.075Z,14.29
2022-08-17T20:17:41.088Z,14.56
2022-08-17T20:20:26.223Z,14.56
2022-08-17T20:23:04.886Z,14.53
2022-08-17T20:25:38.641Z,14.59
2022-08-17T20:28:16.555Z,14.75
2022-08-17T20:30:44.114Z,14.40
2022-08-17T20:33:29.559Z,14.59
2022-08-17T20:36:26.398Z,14.56
2022-08-17T20:38:57.016Z,14.11
2022-08-17T20:41:24.759Z,14.08
2022-08-17T20:43:58.434Z,13.64
2022-08-17T20:46:37.718Z,13.83
2022-08-17T20:49:19.813Z,13.94
2022-08-17T20:52:00.758Z,14.00
2022-08-17T20:54:40.931Z,13.73
2022-08-17T20:57:14.098Z,13.59
2022-08-17T20:59:45.138Z,13.71
2022-08-17T21:02:20.889Z,13.69
2022-08-17T21:04:50.526Z,13.53
2022-08-17T21:07:49.331Z,13.67
2022-08-17T21:10:31.044Z,13.63
2022-08-17T21:13:16.040Z,13.89
2022-08-17T21:16:16.609Z,13.55
2022-08-17T21:18:54.322Z,13.70
2022-08-17T21:21:33.791Z,13.56
2022-08-17T21:24:34.715Z,13.59
2022-08-17T21:27:23.144Z,13.42
2022-08-17T21:30:05.150Z,13.10
2022-08-17T21:32:35.576Z,13.18
2022-08-17T21:35:11.427Z,13.16
2022-08-17T21:37:42.619Z,13.12
2022-08-17T21:40:18.627Z,13.03
2022-08-17T21:42:55.181Z,13.22
2022-08-17T21:45:30.222Z,13.30
2022-08-17T21:48:15.264Z,13.16
2022-08-17T21:50:45.029Z,13.11
2022-08-17T21:53:21.790Z,13.10
2022-08-17T21:55:52.305Z,12.96
2022-08-17T21:58:40.431Z,13.05
2022-08-17T22:01:12.542Z,12.85
2022-08-17T22:03:40.742Z,12.95
2022-08-17T22:06:52.502Z,12.73
2022-08-17T22:10:10.917Z,12.57
2022-08-17T22:12:37.777Z,12.53
2022-08-17T22:15:07.457Z,12.72
2022-08-17T22:17:44.981Z,12.84
2022-08-17T22:20:17.790Z,12.76
2022-08-17T22:23:06.531Z,12.82
2022-08-17T22:25:39.409Z,12.89
2022-08-17T22:28:11.724Z,12.60
2022-08-17T22:31:01.732Z,12.80
2022-08-17T22:33:50.409Z,12.74
2022-08-17T22:36:34.527Z,12.84
2022-08-17T22:39:26.036Z,12.70
2022-08-17T22:41:57.101Z,12.85
2022-08-17T22:44:29.524Z,12.69
2022-08-17T22:47:03.748Z,12.71
2022-08-17T22:49:38.528Z,12.70
2022-08-17T22:52:34.509Z,12.67
2022-08-17T22:55:33.408Z,12.76
2022-08-17T22:58:19.585Z,12.69
2022-08-17T23:00:48.287Z,12.62
2022-08-17T23:03:15.083Z,12.69
2022-08-17T23:05:46.290Z,12.55
2022-08-17T23:08:14.129Z,12.62
2022-08-17T23:10:42.024Z,12.78
2022-08-17T23:13:12.020Z,12.63
2022-08-17T23:15:41.975Z,12.73
2022-08-17T23:18:08.899Z,12.47
2022-08-17T23:20:37.420Z,12.51
2022-08-17T23:23:06.789Z,12.37
2022-08-17T23:25:35.043Z,12.40
2022-08-17T23:28:04.939Z,12.61
2022-08-17T23:30:36.412Z,12.25
2022-08-17T23:33:09.373Z,12.30
2022-08-17T23:35:39.665Z,12.37
2022-08-17T23:38:12.614Z,12.57
2022-08-17T23:40:40.436Z,12.45
2022-08-17T23:43:23.569Z,12.64
2022-08-17T23:45:56.257Z,12.63
2022-08-17T23:48:28.440Z,12.58
2022-08-17T23:51:09.264Z,12.50
2022-08-17T23:53:37.455Z,12.58
2022-08-17T23:56:09.261Z,12.28
2022-08-17T23:58:39.329Z,12.31
